Hit Tracker is now ESPN Home Run Tracker! Hit Tracker founder Greg Rybarczyk is now collaborating with the ESPN Stats & Information Group to continue tracking all MLB home runs, and helping baseball fans know "How Far It Really Went!™" Please credit any information on this site to ESPN Stats & Information Group. For more information and analysis on home runs, please contact founder Greg Rybarczyk. E-Mail ESPN Home Run Tracker
Main Page | Ballparks | Park Overlays | Glossary | Highlight Homers | Feedback | Bio | 3 Types of HR's | AAA Home Run Derby Last Updated: May 23, 2017, 11:42 pm PST
If you want to know "How Far It Really Went!", then you've come to the right place! Welcome to the ESPN Home Run Tracker, where you can find accurate, transparently verifiable distances for every home run hit in MLB games. Please also check out the ESPN MLB Scoreboard throughout the 2017 season! Contact us at grybar@hittrackeronline.com.
Season:
Ballpark detail for Wrigley Field
Ballpark # of Home Runs HR per game Avg.
True
Distance
Avg.
Speed
Off
Bat
Avg.
Std.
Dist.
Wrigley Field 61 2.65 396.9 103 394.2

Scatter Plot of Home Runs Wrigley Field
 Overlay Ballpark:
Without range rings   With range rings

2017 Season Home Runs for Wrigley Field
Click headers to sort
Date Video Path Hitter Hitter
Team
Pitcher Pitcher
Team
INN Ballpark Type/
Luck
True
Dist.
Speed
Off
Bat
Elev.
Angle
Horiz.
Angle
Apex Impact Due To: Std.
Dist.
#
Parks
Wind Temp. ^ Alt.
05/07/17 Video View Baez, Javier CHC Severino, Luis NYY 3 Wrigley Fiel... JE 358 98.9 34.0 104.0 128 -17 -6 2 381 24
04/17/17 Video View Braun, Ryan MIL Lackey, John CHC 1 Wrigley Fiel... PL 375 96.9 33.2 103.9 111 5 -5 2 373 4
05/01/17 Video View Galvis, Freddy PHI Grimm, Justin CHC 7 Wrigley Fiel... PL 392 99.6 33.0 74.0 111 10 -5 2 384 25
05/02/17 Video View Baez, Javier CHC Hellickson, Jeremy PHI 3 Wrigley Fiel... PL 396 101.5 32.1 108.3 109 7 -5 2 392 30
05/06/17 Video View Castro, Starlin NYY Pena, Felix CHC 4 Wrigley Fiel... PL 386 101.9 33.0 111.9 113 1 -5 2 388 30
04/13/17 Video View Russell, Addison CHC Ryu, Hyun-Jin LAD 4 Wrigley Fiel... ND 417 105.8 28.1 104.3 101 -2 -3 1 421 30
04/19/17 Video View Almora Jr., Albert CHC Milone, Tommy MIL 2 Wrigley Fiel... PL 388 104.5 29.4 113.2 98 -12 -3 2 401 30
05/05/17 Video View Bryant, Kris CHC Pineda, Michael NYY 1 Wrigley Fiel... PL 374 97.5 31.9 72.9 100 2 -3 2 374 24
05/07/17 Video View Ellsbury, Jacoby NYY Grimm, Justin CHC 8 Wrigley Fiel... JE 368 104.6 25.2 56.5 63 -1 -3 1 370 30
05/23/17 Video View Schwarber, Kyle CHC Cueto, Johnny SF 1 Wrigley Fiel... ND 460 115.8 25.4 74.2 97 -4 -3 1 464 30
05/23/17 Video View Rizzo, Anthony CHC Cueto, Johnny SF 4 Wrigley Fiel... PL 393 101.2 30.9 75.0 106 -2 -3 2 396 30
04/17/17 Video View Bandy, Jett MIL Lackey, John CHC 2 Wrigley Fiel... PL 374 99.7 26.6 108.5 76 1 -2 0 374 13
04/17/17 Video View Thames, Eric MIL Lackey, John CHC 3 Wrigley Fiel... JE 359 96.3 28.0 108.4 77 0 -2 1 361 2
04/19/17 Video View Russell, Addison CHC Feliz, Neftali MIL 9 Wrigley Fiel... PL 377 98.8 29.2 108.1 92 0 -2 1 378 20
05/01/17 Video View Joseph, Tommy PHI Anderson, Brett CHC 1 Wrigley Fiel... ND 418 108.0 23.6 103.3 66 3 -2 0 415 30
05/01/17 Video View Baez, Javier CHC Velasquez, Vince PHI 5 Wrigley Fiel... PL 423 106.9 23.8 81.3 77 2 -2 1 422 29
05/01/17 Video View Saunders, Michael PHI Grimm, Justin CHC 7 Wrigley Fiel... PL 406 107.9 24.0 71.5 70 2 -2 1 405 30
05/04/17 Video View Franco, Maikel PHI Lackey, John CHC 4 Wrigley Fiel... PL 376 100.5 27.5 107.4 87 -7 -2 1 384 30
05/05/17 Video View Schwarber, Kyle CHC Pineda, Michael NYY 6 Wrigley Fiel... PL 398 107.2 25.6 63.6 70 3 -2 1 396 30
05/05/17 Video View Gardner, Brett NYY Rondon, Hector CHC 9 Wrigley Fiel... PL 400 104.2 27.8 68.4 83 3 -2 1 398 30
05/21/17 Video View Rizzo, Anthony CHC Hughes, Jared MIL 8 Wrigley Fiel... PL 415 103.3 31.5 81.3 121 1 -2 2 414 28
04/13/17 Video View Rizzo, Anthony CHC Ryu, Hyun-Jin LAD 1 Wrigley Fiel... JE 402 108.1 21.3 78.6 62 0 -1 0 402 26
04/12/17 Video View Toles, Andrew LAD Lackey, John CHC 1 Wrigley Fiel... JE 374 105.4 22.8 69.1 61 -1 -1 1 377 21
04/19/17 Video View Shaw, Travis MIL Hendricks, Kyle CHC 1 Wrigley Fiel... JE 376 105.0 24.1 65.7 64 -2 -1 1 378 29
04/19/17 Video View Bandy, Jett MIL Hendricks, Kyle CHC 2 Wrigley Fiel... JE 370 99.6 27.4 111.0 77 -3 -1 1 372 20
05/02/17 Video View Bryant, Kris CHC Hellickson, Jeremy PHI 1 Wrigley Fiel... PL 391 111.8 20.6 110.1 53 0 -1 0 391 26
05/02/17 Video View Altherr, Aaron PHI Lester, Jon CHC 1 Wrigley Fiel... JE/L 378 99.2 23.8 97.4 72 0 -1 0 379 0
05/02/17 Video View Schwarber, Kyle CHC Hellickson, Jeremy PHI 4 Wrigley Fiel... JE 380 103.3 24.7 68.9 64 1 -1 0 379 23
05/04/17 Video View Rupp, Cameron PHI Edwards Jr., Carl CHC 8 Wrigley Fiel... PL 419 108.5 22.7 79.6 75 -1 -1 0 421 29
05/04/17 Video View Montero, Miguel CHC Benoit, Joaquin PHI 8 Wrigley Fiel... JE 398 100.5 25.1 94.1 81 1 -1 1 398 0
05/21/17 Video View Zobrist, Ben CHC Anderson, Chase MIL 1 Wrigley Fiel... ND 405 104.2 28.8 67.7 90 5 -1 1 399 30
05/21/17 Video View Bryant, Kris CHC Anderson, Chase MIL 3 Wrigley Fiel... ND 422 107.2 25.7 71.6 77 9 -1 1 412 29
05/21/17 Video View Bryant, Kris CHC Anderson, Chase MIL 5 Wrigley Fiel... JE 367 103.0 23.2 110.5 56 0 -1 0 367 4
05/21/17 Video View Shaw, Travis MIL Floro, Dylan CHC 9 Wrigley Fiel... PL 405 106.8 23.1 75.8 67 2 -1 0 403 27
05/22/17 Video View Zobrist, Ben CHC Law, Derek SF 8 Wrigley Fiel... ND 410 111.2 22.2 71.5 64 1 -1 0 409 30
05/23/17 Video View Heyward, Jason CHC Cueto, Johnny SF 2 Wrigley Fiel... JE 374 103.6 23.8 69.1 63 -1 -1 1 375 23
04/16/17 Video View Frazier, Adam PIT Grimm, Justin CHC 9 Wrigley Fiel... PL 432 107.1 23.8 84.6 79 0 0 0 431 27
04/18/17 Video View Schwarber, Kyle CHC Nelson, Jimmy MIL 3 Wrigley Fiel... ND 433 112.3 22.2 77.0 69 2 0 1 430 29
04/18/17 Video View Montero, Miguel CHC Nelson, Jimmy MIL 4 Wrigley Fiel... JE 408 101.0 29.9 83.4 105 0 0 2 406 21
04/18/17 Video View Shaw, Travis MIL Duensing, Brian CHC 5 Wrigley Fiel... JE 378 98.9 25.0 100.3 69 0 0 0 378 1
05/06/17 Video View Hicks, Aaron NYY Zastryzny, Rob CHC 8 Wrigley Fiel... PL 391 104.0 22.4 100.5 64 1 0 0 390 4
05/16/17 Video View Happ, Ian CHC Arroyo, Bronson CIN 5 Wrigley Fiel... JE 382 98.1 26.2 99.8 71 2 0 0 379 1
05/16/17 Video View Rizzo, Anthony CHC Lorenzen, Michael CIN 8 Wrigley Fiel... JE 401 112.0 20.0 75.2 53 2 0 0 399 23
05/22/17 Video View Panik, Joe SF Lackey, John CHC 1 Wrigley Fiel... JE/L 386 96.0 30.0 94.4 94 4 0 1 381 1
05/22/17 Video View Belt, Brandon SF Lackey, John CHC 5 Wrigley Fiel... PL 367 95.9 31.6 107.4 94 0 0 1 366 9
05/22/17 Video View Ruggiano, Justin SF Rondon, Hector CHC 8 Wrigley Fiel... JE/L 413 101.5 26.0 87.3 87 4 0 1 408 9
05/22/17 Video View Baez, Javier CHC Blach, Ty SF 8 Wrigley Fiel... PL 387 100.3 27.2 74.0 82 2 0 1 384 22
04/15/17 Video View Harrison, Josh PIT Duensing, Brian CHC 7 Wrigley Fiel... JE 409 101.7 25.2 92.6 74 1 1 0 407 7
04/15/17 Video View Bryant, Kris CHC Watson, Tony PIT 9 Wrigley Fiel... JE/L 384 96.6 27.7 96.0 79 2 1 0 380 0
04/18/17 Video View Arcia, Orlando MIL Anderson, Brett CHC 4 Wrigley Fiel... PL 370 96.7 32.0 69.2 94 3 1 1 365 19
05/16/17 Video View Cozart, Zack CIN Lackey, John CHC 1 Wrigley Fiel... PL 397 105.8 26.0 115.1 71 2 1 1 393 30
05/16/17 Video View Votto, Joey CIN Uehara, Koji CHC 7 Wrigley Fiel... ND 421 103.2 27.4 97.6 90 3 1 1 416 30
05/17/17 Video View Cozart, Zack CIN Hendricks, Kyle CHC 3 Wrigley Fiel... JE/L 366 93.9 31.6 99.9 99 -2 1 1 364 3
05/18/17 Video View Bryant, Kris CHC Garrett, Amir CIN 4 Wrigley Fiel... PL 449 112.8 20.5 86.8 69 1 1 0 448 30
04/15/17 Video View Cervelli, Francisco PIT Arrieta, Jake CHC 2 Wrigley Fiel... JE/L 403 96.7 34.2 90.8 110 21 2 2 379 0
04/15/17 Video View McCutchen, Andrew PIT Strop, Pedro CHC 7 Wrigley Fiel... JE/L 366 95.6 35.9 123.4 96 19 2 2 344 20
05/16/17 Video View Schwarber, Kyle CHC Arroyo, Bronson CIN 2 Wrigley Fiel... ND 450 108.2 28.4 71.6 93 22 2 1 426 29
05/16/17 Video View Barnhart, Tucker CIN Lackey, John CHC 2 Wrigley Fiel... PL 445 106.5 26.5 85.7 95 6 2 1 437 30
05/18/17 Video View Baez, Javier CHC Garrett, Amir CIN 1 Wrigley Fiel... ND 408 100.5 31.5 101.0 105 8 2 2 397 28
04/15/17 Video View Marte, Starling PIT Arrieta, Jake CHC 6 Wrigley Fiel... PL/L 377 93.5 35.5 108.8 98 27 3 2 346 1
04/15/17 Video View Bryant, Kris CHC Glasnow, Tyler PIT 1 Wrigley Fiel... ND 465 107.2 29.9 98.7 102 26 4 2 437 30


About HitTracker | Contact Us
© 2006-2017 HitTrackerOnline